Terminal Aerodrome Forecast
Issued by NWS Shreveport, LA

Home | Current Version | Previous Version | Text Only | Print | Product List | Glossary On
Versions: 1 2 3 4 5 6 7 8 9 10 11 12 13 14 15 16 17 18 19
000
FTUS44 KSHV 301300 AAA
TAFTXK
TAF AMD
KTXK 301347Z 3014/3112 14005KT P6SM FEW018
      TEMPO 3014/3015 BKN018
     FM301500 15007KT P6SM SCT030 BKN120 BKN250
      TEMPO 3016/3020 5SM -TSRA BR BKN035CB
     FM302000 15007KT P6SM VCTS BKN040CB
     FM310000 16005KT P6SM BKN045
     FM310600 16004KT P6SM BKN015=

USA.gov is the U.S. government's official web portal to all federal, state and local government web resources and services.